sensor_id;sensor_type;location;lat;lon;timestamp;temperature;humidity
12872;DHT22;6504;53.766;9.626;2023-07-30T00:01:27;18.00;99.90
12872;DHT22;6504;53.766;9.626;2023-07-30T00:03:55;18.00;99.90
12872;DHT22;6504;53.766;9.626;2023-07-30T00:06:24;18.00;99.90
12872;DHT22;6504;53.766;9.626;2023-07-30T00:08:52;18.00;99.90
12872;DHT22;6504;53.766;9.626;2023-07-30T00:11:21;18.00;99.90
12872;DHT22;6504;53.766;9.626;2023-07-30T00:13:49;18.00;99.90
12872;DHT22;6504;53.766;9.626;2023-07-30T00:16:17;18.00;99.90
12872;DHT22;6504;53.766;9.626;2023-07-30T00:18:45;18.00;99.90
12872;DHT22;6504;53.766;9.626;2023-07-30T00:21:13;18.00;99.90
12872;DHT22;6504;53.766;9.626;2023-07-30T00:23:42;18.00;99.90
12872;DHT22;6504;53.766;9.626;2023-07-30T00:26:10;18.00;99.90
12872;DHT22;6504;53.766;9.626;2023-07-30T00:28:38;18.00;99.90
12872;DHT22;6504;53.766;9.626;2023-07-30T00:31:07;17.90;99.90
12872;DHT22;6504;53.766;9.626;2023-07-30T00:33:35;17.90;99.90
12872;DHT22;6504;53.766;9.626;2023-07-30T00:36:03;17.90;99.90
12872;DHT22;6504;53.766;9.626;2023-07-30T00:38:31;17.90;99.90
12872;DHT22;6504;53.766;9.626;2023-07-30T00:41:00;17.90;99.90
12872;DHT22;6504;53.766;9.626;2023-07-30T00:43:28;17.90;99.90
12872;DHT22;6504;53.766;9.626;2023-07-30T00:45:57;17.90;99.90
12872;DHT22;6504;53.766;9.626;2023-07-30T00:48:25;17.90;99.90
12872;DHT22;6504;53.766;9.626;2023-07-30T00:50:53;17.90;99.90
12872;DHT22;6504;53.766;9.626;2023-07-30T00:53:22;17.90;99.90
12872;DHT22;6504;53.766;9.626;2023-07-30T00:55:51;17.90;99.90
12872;DHT22;6504;53.766;9.626;2023-07-30T00:58:21;17.90;99.90
12872;DHT22;6504;53.766;9.626;2023-07-30T01:00:52;17.90;99.90
12872;DHT22;6504;53.766;9.626;2023-07-30T01:03:21;17.80;99.90
12872;DHT22;6504;53.766;9.626;2023-07-30T01:05:49;17.80;99.90
12872;DHT22;6504;53.766;9.626;2023-07-30T01:08:17;17.80;99.90
12872;DHT22;6504;53.766;9.626;2023-07-30T01:10:46;17.80;99.90
12872;DHT22;6504;53.766;9.626;2023-07-30T01:13:15;17.70;99.90
12872;DHT22;6504;53.766;9.626;2023-07-30T01:15:45;17.70;99.90
12872;DHT22;6504;53.766;9.626;2023-07-30T01:18:14;17.70;99.90
12872;DHT22;6504;53.766;9.626;2023-07-30T01:20:43;17.70;99.90
12872;DHT22;6504;53.766;9.626;2023-07-30T01:23:12;17.70;99.90
12872;DHT22;6504;53.766;9.626;2023-07-30T01:25:42;17.60;99.90
12872;DHT22;6504;53.766;9.626;2023-07-30T01:28:12;17.60;99.90
12872;DHT22;6504;53.766;9.626;2023-07-30T01:30:45;17.60;99.90
12872;DHT22;6504;53.766;9.626;2023-07-30T01:33:15;17.60;99.90
12872;DHT22;6504;53.766;9.626;2023-07-30T01:35:43;17.60;99.90
12872;DHT22;6504;53.766;9.626;2023-07-30T01:38:13;17.60;99.90
12872;DHT22;6504;53.766;9.626;2023-07-30T01:40:42;17.60;99.90
12872;DHT22;6504;53.766;9.626;2023-07-30T01:43:10;17.60;99.90
12872;DHT22;6504;53.766;9.626;2023-07-30T01:45:38;17.70;99.90
12872;DHT22;6504;53.766;9.626;2023-07-30T01:48:07;17.70;99.90
12872;DHT22;6504;53.766;9.626;2023-07-30T01:50:35;17.70;99.90
12872;DHT22;6504;53.766;9.626;2023-07-30T01:53:04;17.70;99.90
12872;DHT22;6504;53.766;9.626;2023-07-30T01:55:33;17.70;99.90
12872;DHT22;6504;53.766;9.626;2023-07-30T01:58:01;17.70;99.90
12872;DHT22;6504;53.766;9.626;2023-07-30T02:00:29;17.70;99.90
12872;DHT22;6504;53.766;9.626;2023-07-30T02:02:57;17.70;99.90
12872;DHT22;6504;53.766;9.626;2023-07-30T02:05:26;17.70;99.90
12872;DHT22;6504;53.766;9.626;2023-07-30T02:07:54;17.70;99.90
12872;DHT22;6504;53.766;9.626;2023-07-30T02:10:23;17.70;99.90
12872;DHT22;6504;53.766;9.626;2023-07-30T02:12:53;17.70;99.90
12872;DHT22;6504;53.766;9.626;2023-07-30T02:15:21;17.60;99.90
12872;DHT22;6504;53.766;9.626;2023-07-30T02:17:49;17.60;99.90
12872;DHT22;6504;53.766;9.626;2023-07-30T02:20:17;17.60;99.90
12872;DHT22;6504;53.766;9.626;2023-07-30T02:22:45;17.60;99.90
12872;DHT22;6504;53.766;9.626;2023-07-30T02:25:13;17.60;99.90
12872;DHT22;6504;53.766;9.626;2023-07-30T02:27:41;17.50;99.90
12872;DHT22;6504;53.766;9.626;2023-07-30T02:30:11;17.50;99.90
12872;DHT22;6504;53.766;9.626;2023-07-30T02:32:39;17.50;99.90
12872;DHT22;6504;53.766;9.626;2023-07-30T02:35:09;17.50;99.90
12872;DHT22;6504;53.766;9.626;2023-07-30T02:37:37;17.50;99.90
12872;DHT22;6504;53.766;9.626;2023-07-30T02:40:06;17.50;99.90
12872;DHT22;6504;53.766;9.626;2023-07-30T02:42:34;17.50;99.90
12872;DHT22;6504;53.766;9.626;2023-07-30T02:45:03;17.50;99.90
12872;DHT22;6504;53.766;9.626;2023-07-30T02:47:33;17.50;99.90
12872;DHT22;6504;53.766;9.626;2023-07-30T02:50:01;17.50;99.90
12872;DHT22;6504;53.766;9.626;2023-07-30T02:52:32;17.50;99.90
12872;DHT22;6504;53.766;9.626;2023-07-30T02:55:00;17.50;99.90
12872;DHT22;6504;53.766;9.626;2023-07-30T02:57:28;17.60;99.90
12872;DHT22;6504;53.766;9.626;2023-07-30T02:59:56;17.60;99.90
12872;DHT22;6504;53.766;9.626;2023-07-30T03:02:24;17.50;99.90
12872;DHT22;6504;53.766;9.626;2023-07-30T03:04:54;17.50;99.90
12872;DHT22;6504;53.766;9.626;2023-07-30T03:07:23;17.50;99.90
12872;DHT22;6504;53.766;9.626;2023-07-30T03:09:51;17.50;99.90
12872;DHT22;6504;53.766;9.626;2023-07-30T03:12:19;17.50;99.90
12872;DHT22;6504;53.766;9.626;2023-07-30T03:14:47;17.50;99.90
12872;DHT22;6504;53.766;9.626;2023-07-30T03:17:15;17.50;99.90
12872;DHT22;6504;53.766;9.626;2023-07-30T03:19:43;17.50;99.90
12872;DHT22;6504;53.766;9.626;2023-07-30T03:22:13;17.50;99.90
12872;DHT22;6504;53.766;9.626;2023-07-30T03:24:41;17.40;99.90
12872;DHT22;6504;53.766;9.626;2023-07-30T03:27:09;17.40;99.90
12872;DHT22;6504;53.766;9.626;2023-07-30T03:29:37;17.40;99.90
12872;DHT22;6504;53.766;9.626;2023-07-30T03:32:06;17.40;99.90
12872;DHT22;6504;53.766;9.626;2023-07-30T03:34:34;17.40;99.90
12872;DHT22;6504;53.766;9.626;2023-07-30T03:37:02;17.40;99.90
12872;DHT22;6504;53.766;9.626;2023-07-30T03:39:32;17.40;99.90
12872;DHT22;6504;53.766;9.626;2023-07-30T03:42:00;17.40;99.90
12872;DHT22;6504;53.766;9.626;2023-07-30T03:44:28;17.40;99.90
12872;DHT22;6504;53.766;9.626;2023-07-30T03:46:56;17.30;99.90
12872;DHT22;6504;53.766;9.626;2023-07-30T03:49:25;17.30;99.90
12872;DHT22;6504;53.766;9.626;2023-07-30T03:51:53;17.30;99.90
12872;DHT22;6504;53.766;9.626;2023-07-30T03:54:21;17.30;99.90
12872;DHT22;6504;53.766;9.626;2023-07-30T03:56:50;17.30;99.90
12872;DHT22;6504;53.766;9.626;2023-07-30T03:59:18;17.30;99.90
12872;DHT22;6504;53.766;9.626;2023-07-30T04:01:46;17.30;99.90
12872;DHT22;6504;53.766;9.626;2023-07-30T04:04:14;17.30;99.90
12872;DHT22;6504;53.766;9.626;2023-07-30T04:06:43;17.20;99.90
12872;DHT22;6504;53.766;9.626;2023-07-30T04:09:11;17.20;99.90
12872;DHT22;6504;53.766;9.626;2023-07-30T04:11:39;17.20;99.90
12872;DHT22;6504;53.766;9.626;2023-07-30T04:14:08;17.20;99.90
12872;DHT22;6504;53.766;9.626;2023-07-30T04:16:36;17.20;99.90
12872;DHT22;6504;53.766;9.626;2023-07-30T04:19:04;17.20;99.90
12872;DHT22;6504;53.766;9.626;2023-07-30T04:21:32;17.20;99.90
12872;DHT22;6504;53.766;9.626;2023-07-30T04:24:01;17.20;99.90
12872;DHT22;6504;53.766;9.626;2023-07-30T04:26:29;17.20;99.90
12872;DHT22;6504;53.766;9.626;2023-07-30T04:28:57;17.20;99.90
12872;DHT22;6504;53.766;9.626;2023-07-30T04:31:27;17.20;99.90
12872;DHT22;6504;53.766;9.626;2023-07-30T04:33:55;17.20;99.90
12872;DHT22;6504;53.766;9.626;2023-07-30T04:36:23;17.20;99.90
12872;DHT22;6504;53.766;9.626;2023-07-30T04:38:51;17.20;99.90
12872;DHT22;6504;53.766;9.626;2023-07-30T04:41:19;17.20;99.90
12872;DHT22;6504;53.766;9.626;2023-07-30T04:43:47;17.10;99.90
12872;DHT22;6504;53.766;9.626;2023-07-30T04:46:15;17.10;99.90
12872;DHT22;6504;53.766;9.626;2023-07-30T04:48:45;17.10;99.90
12872;DHT22;6504;53.766;9.626;2023-07-30T04:51:13;17.10;99.90
12872;DHT22;6504;53.766;9.626;2023-07-30T04:53:41;17.10;99.90
12872;DHT22;6504;53.766;9.626;2023-07-30T04:56:09;17.10;99.90
12872;DHT22;6504;53.766;9.626;2023-07-30T04:58:37;17.20;99.90
12872;DHT22;6504;53.766;9.626;2023-07-30T05:01:05;17.20;99.90
12872;DHT22;6504;53.766;9.626;2023-07-30T05:03:33;17.10;99.90
12872;DHT22;6504;53.766;9.626;2023-07-30T05:06:02;17.20;99.90
12872;DHT22;6504;53.766;9.626;2023-07-30T05:08:31;17.20;99.90
12872;DHT22;6504;53.766;9.626;2023-07-30T05:10:59;17.20;99.90
12872;DHT22;6504;53.766;9.626;2023-07-30T05:13:27;17.20;99.90
12872;DHT22;6504;53.766;9.626;2023-07-30T05:15:55;17.20;99.90
12872;DHT22;6504;53.766;9.626;2023-07-30T05:18:23;17.20;99.90
12872;DHT22;6504;53.766;9.626;2023-07-30T05:20:51;17.30;99.90
12872;DHT22;6504;53.766;9.626;2023-07-30T05:23:21;17.30;99.90
12872;DHT22;6504;53.766;9.626;2023-07-30T05:25:49;17.20;99.90
12872;DHT22;6504;53.766;9.626;2023-07-30T05:28:17;17.20;99.90
12872;DHT22;6504;53.766;9.626;2023-07-30T05:30:45;17.30;99.90
12872;DHT22;6504;53.766;9.626;2023-07-30T05:33:13;17.30;99.90
12872;DHT22;6504;53.766;9.626;2023-07-30T05:35:41;17.30;99.90
12872;DHT22;6504;53.766;9.626;2023-07-30T05:38:10;17.30;99.90
12872;DHT22;6504;53.766;9.626;2023-07-30T05:40:41;17.30;99.90
12872;DHT22;6504;53.766;9.626;2023-07-30T05:43:09;17.30;99.90
12872;DHT22;6504;53.766;9.626;2023-07-30T05:45:37;17.40;99.90
12872;DHT22;6504;53.766;9.626;2023-07-30T05:48:05;17.30;99.90
12872;DHT22;6504;53.766;9.626;2023-07-30T05:50:33;17.40;99.90
12872;DHT22;6504;53.766;9.626;2023-07-30T05:53:01;17.30;99.90
12872;DHT22;6504;53.766;9.626;2023-07-30T05:55:29;17.30;99.90
12872;DHT22;6504;53.766;9.626;2023-07-30T05:57:59;17.30;99.90
12872;DHT22;6504;53.766;9.626;2023-07-30T06:00:27;17.30;99.90
12872;DHT22;6504;53.766;9.626;2023-07-30T06:02:55;17.30;99.90
12872;DHT22;6504;53.766;9.626;2023-07-30T06:05:23;17.30;99.90
12872;DHT22;6504;53.766;9.626;2023-07-30T06:07:52;17.30;99.90
12872;DHT22;6504;53.766;9.626;2023-07-30T06:10:20;17.40;99.90
12872;DHT22;6504;53.766;9.626;2023-07-30T06:12:48;17.40;99.90
12872;DHT22;6504;53.766;9.626;2023-07-30T06:15:17;17.50;99.90
12872;DHT22;6504;53.766;9.626;2023-07-30T06:17:45;17.50;99.90
12872;DHT22;6504;53.766;9.626;2023-07-30T06:20:13;17.50;99.90
12872;DHT22;6504;53.766;9.626;2023-07-30T06:22:42;17.60;99.90
12872;DHT22;6504;53.766;9.626;2023-07-30T06:25:10;17.60;99.90
12872;DHT22;6504;53.766;9.626;2023-07-30T06:27:38;17.60;99.90
12872;DHT22;6504;53.766;9.626;2023-07-30T06:30:07;17.70;99.90
12872;DHT22;6504;53.766;9.626;2023-07-30T06:32:36;17.70;99.90
12872;DHT22;6504;53.766;9.626;2023-07-30T06:35:06;17.80;99.90
12872;DHT22;6504;53.766;9.626;2023-07-30T06:37:34;17.80;99.90
12872;DHT22;6504;53.766;9.626;2023-07-30T06:40:02;17.90;99.90
12872;DHT22;6504;53.766;9.626;2023-07-30T06:42:33;17.90;99.90
12872;DHT22;6504;53.766;9.626;2023-07-30T06:45:01;17.90;99.90
12872;DHT22;6504;53.766;9.626;2023-07-30T06:47:29;18.00;99.90
12872;DHT22;6504;53.766;9.626;2023-07-30T06:50:01;18.00;99.90
12872;DHT22;6504;53.766;9.626;2023-07-30T06:52:29;18.00;99.90
12872;DHT22;6504;53.766;9.626;2023-07-30T06:54:57;18.00;99.90
12872;DHT22;6504;53.766;9.626;2023-07-30T06:57:25;18.00;99.90
12872;DHT22;6504;53.766;9.626;2023-07-30T06:59:53;18.10;99.90
12872;DHT22;6504;53.766;9.626;2023-07-30T07:02:22;18.20;99.90
12872;DHT22;6504;53.766;9.626;2023-07-30T07:04:50;18.20;99.90
12872;DHT22;6504;53.766;9.626;2023-07-30T07:07:20;18.30;99.90
12872;DHT22;6504;53.766;9.626;2023-07-30T07:09:49;18.30;99.90
12872;DHT22;6504;53.766;9.626;2023-07-30T07:12:17;18.30;99.90
12872;DHT22;6504;53.766;9.626;2023-07-30T07:14:45;18.40;99.90
12872;DHT22;6504;53.766;9.626;2023-07-30T07:17:13;18.40;99.90
12872;DHT22;6504;53.766;9.626;2023-07-30T07:19:41;18.40;99.90
12872;DHT22;6504;53.766;9.626;2023-07-30T07:22:10;18.50;99.90
12872;DHT22;6504;53.766;9.626;2023-07-30T07:24:40;18.50;99.90
12872;DHT22;6504;53.766;9.626;2023-07-30T07:27:08;18.60;99.90
12872;DHT22;6504;53.766;9.626;2023-07-30T07:29:36;18.60;99.90
12872;DHT22;6504;53.766;9.626;2023-07-30T07:32:05;18.60;99.90
12872;DHT22;6504;53.766;9.626;2023-07-30T07:34:33;18.70;99.90
12872;DHT22;6504;53.766;9.626;2023-07-30T07:37:01;18.80;99.90
12872;DHT22;6504;53.766;9.626;2023-07-30T07:39:29;18.80;99.90
12872;DHT22;6504;53.766;9.626;2023-07-30T07:41:59;18.80;99.90
12872;DHT22;6504;53.766;9.626;2023-07-30T07:44:27;18.90;99.90
12872;DHT22;6504;53.766;9.626;2023-07-30T07:46:55;19.00;99.90
12872;DHT22;6504;53.766;9.626;2023-07-30T07:49:24;19.10;99.90
12872;DHT22;6504;53.766;9.626;2023-07-30T07:51:52;19.20;99.90
12872;DHT22;6504;53.766;9.626;2023-07-30T07:54:20;19.30;99.90
12872;DHT22;6504;53.766;9.626;2023-07-30T07:56:48;19.30;99.90
12872;DHT22;6504;53.766;9.626;2023-07-30T07:59:18;19.40;99.90
12872;DHT22;6504;53.766;9.626;2023-07-30T08:01:46;19.50;99.90
12872;DHT22;6504;53.766;9.626;2023-07-30T08:04:14;19.50;99.90
12872;DHT22;6504;53.766;9.626;2023-07-30T08:06:42;19.60;99.90
12872;DHT22;6504;53.766;9.626;2023-07-30T08:09:10;19.60;99.90
12872;DHT22;6504;53.766;9.626;2023-07-30T08:11:38;19.60;99.90
12872;DHT22;6504;53.766;9.626;2023-07-30T08:14:07;19.70;99.90
12872;DHT22;6504;53.766;9.626;2023-07-30T08:16:36;19.80;99.90
12872;DHT22;6504;53.766;9.626;2023-07-30T08:19:04;19.80;99.90
12872;DHT22;6504;53.766;9.626;2023-07-30T08:21:32;19.90;99.90
12872;DHT22;6504;53.766;9.626;2023-07-30T08:24:00;20.00;99.90
12872;DHT22;6504;53.766;9.626;2023-07-30T08:26:28;20.00;99.90
12872;DHT22;6504;53.766;9.626;2023-07-30T08:28:57;20.10;99.90
12872;DHT22;6504;53.766;9.626;2023-07-30T08:31:25;20.10;99.90
12872;DHT22;6504;53.766;9.626;2023-07-30T08:33:54;20.10;99.90
12872;DHT22;6504;53.766;9.626;2023-07-30T08:36:22;20.10;99.90
12872;DHT22;6504;53.766;9.626;2023-07-30T08:38:50;20.20;99.90
12872;DHT22;6504;53.766;9.626;2023-07-30T08:41:19;20.10;99.90
12872;DHT22;6504;53.766;9.626;2023-07-30T08:43:47;20.10;99.90
12872;DHT22;6504;53.766;9.626;2023-07-30T08:46:17;20.10;99.90
12872;DHT22;6504;53.766;9.626;2023-07-30T08:48:45;20.10;99.90
12872;DHT22;6504;53.766;9.626;2023-07-30T08:51:19;20.20;99.90
12872;DHT22;6504;53.766;9.626;2023-07-30T08:53:48;20.20;99.90
12872;DHT22;6504;53.766;9.626;2023-07-30T08:56:17;20.30;99.90
12872;DHT22;6504;53.766;9.626;2023-07-30T08:58:46;20.40;99.90
12872;DHT22;6504;53.766;9.626;2023-07-30T09:01:16;20.40;99.90
12872;DHT22;6504;53.766;9.626;2023-07-30T09:03:48;20.50;99.90
12872;DHT22;6504;53.766;9.626;2023-07-30T09:06:18;20.50;99.90
12872;DHT22;6504;53.766;9.626;2023-07-30T09:08:46;20.50;99.90
12872;DHT22;6504;53.766;9.626;2023-07-30T09:11:14;20.40;99.90
12872;DHT22;6504;53.766;9.626;2023-07-30T09:13:42;20.40;99.90
12872;DHT22;6504;53.766;9.626;2023-07-30T09:16:11;20.40;99.90
12872;DHT22;6504;53.766;9.626;2023-07-30T09:18:40;20.50;99.90
12872;DHT22;6504;53.766;9.626;2023-07-30T09:21:10;20.40;99.90
12872;DHT22;6504;53.766;9.626;2023-07-30T09:23:44;20.40;99.90
12872;DHT22;6504;53.766;9.626;2023-07-30T09:26:14;20.40;99.90
12872;DHT22;6504;53.766;9.626;2023-07-30T09:28:42;20.40;99.90
12872;DHT22;6504;53.766;9.626;2023-07-30T09:31:10;20.40;99.90
12872;DHT22;6504;53.766;9.626;2023-07-30T09:33:58;20.40;99.90
12872;DHT22;6504;53.766;9.626;2023-07-30T09:36:26;20.30;99.90
12872;DHT22;6504;53.766;9.626;2023-07-30T09:38:55;20.40;99.90
12872;DHT22;6504;53.766;9.626;2023-07-30T09:41:24;20.40;99.90
12872;DHT22;6504;53.766;9.626;2023-07-30T09:43:58;20.40;99.90
12872;DHT22;6504;53.766;9.626;2023-07-30T09:46:29;20.40;99.90
12872;DHT22;6504;53.766;9.626;2023-07-30T09:48:57;20.40;99.90
12872;DHT22;6504;53.766;9.626;2023-07-30T09:51:26;20.30;99.90
12872;DHT22;6504;53.766;9.626;2023-07-30T09:53:56;20.30;99.90
12872;DHT22;6504;53.766;9.626;2023-07-30T09:56:24;20.30;99.90
12872;DHT22;6504;53.766;9.626;2023-07-30T09:58:52;20.30;99.90
12872;DHT22;6504;53.766;9.626;2023-07-30T10:01:23;20.30;99.90
12872;DHT22;6504;53.766;9.626;2023-07-30T10:03:53;20.30;99.90
12872;DHT22;6504;53.766;9.626;2023-07-30T10:06:24;20.30;99.90
12872;DHT22;6504;53.766;9.626;2023-07-30T10:08:57;20.40;99.90
12872;DHT22;6504;53.766;9.626;2023-07-30T10:11:27;20.40;99.90
12872;DHT22;6504;53.766;9.626;2023-07-30T10:13:56;20.40;99.90
12872;DHT22;6504;53.766;9.626;2023-07-30T10:16:28;20.50;99.90
12872;DHT22;6504;53.766;9.626;2023-07-30T10:18:57;20.60;99.90
12872;DHT22;6504;53.766;9.626;2023-07-30T10:21:27;20.70;99.90
12872;DHT22;6504;53.766;9.626;2023-07-30T10:24:02;20.90;99.90
12872;DHT22;6504;53.766;9.626;2023-07-30T10:26:32;21.10;99.90
12872;DHT22;6504;53.766;9.626;2023-07-30T10:29:14;21.20;99.90
12872;DHT22;6504;53.766;9.626;2023-07-30T10:31:44;21.20;99.90
12872;DHT22;6504;53.766;9.626;2023-07-30T10:34:15;21.30;99.90
12872;DHT22;6504;53.766;9.626;2023-07-30T10:36:45;21.30;99.90
12872;DHT22;6504;53.766;9.626;2023-07-30T10:39:17;21.40;99.90
12872;DHT22;6504;53.766;9.626;2023-07-30T10:41:45;21.50;99.90
12872;DHT22;6504;53.766;9.626;2023-07-30T10:44:25;21.50;99.90
12872;DHT22;6504;53.766;9.626;2023-07-30T10:46:54;21.60;99.90
12872;DHT22;6504;53.766;9.626;2023-07-30T10:49:22;21.60;99.90
12872;DHT22;6504;53.766;9.626;2023-07-30T10:51:51;21.50;99.90
12872;DHT22;6504;53.766;9.626;2023-07-30T10:54:21;21.40;99.90
12872;DHT22;6504;53.766;9.626;2023-07-30T10:56:50;21.40;99.90
12872;DHT22;6504;53.766;9.626;2023-07-30T10:59:19;21.30;99.90
12872;DHT22;6504;53.766;9.626;2023-07-30T11:01:47;21.20;99.90
12872;DHT22;6504;53.766;9.626;2023-07-30T11:04:17;21.20;99.90
12872;DHT22;6504;53.766;9.626;2023-07-30T11:06:46;21.10;99.90
12872;DHT22;6504;53.766;9.626;2023-07-30T11:09:19;21.10;99.90
12872;DHT22;6504;53.766;9.626;2023-07-30T11:11:50;21.00;99.90
12872;DHT22;6504;53.766;9.626;2023-07-30T11:14:20;21.00;99.90
12872;DHT22;6504;53.766;9.626;2023-07-30T11:16:50;20.90;99.90
12872;DHT22;6504;53.766;9.626;2023-07-30T11:19:18;20.90;99.90
12872;DHT22;6504;53.766;9.626;2023-07-30T11:21:48;20.90;99.90
12872;DHT22;6504;53.766;9.626;2023-07-30T11:24:20;20.80;99.90
12872;DHT22;6504;53.766;9.626;2023-07-30T11:26:58;20.80;99.90
12872;DHT22;6504;53.766;9.626;2023-07-30T11:29:27;20.90;99.90
12872;DHT22;6504;53.766;9.626;2023-07-30T11:31:57;21.00;99.90
12872;DHT22;6504;53.766;9.626;2023-07-30T11:34:26;21.20;99.90
12872;DHT22;6504;53.766;9.626;2023-07-30T11:36:55;21.30;99.90
12872;DHT22;6504;53.766;9.626;2023-07-30T11:39:24;21.40;99.90
12872;DHT22;6504;53.766;9.626;2023-07-30T11:41:52;21.40;99.90
12872;DHT22;6504;53.766;9.626;2023-07-30T11:44:33;21.50;99.90
12872;DHT22;6504;53.766;9.626;2023-07-30T11:47:02;21.50;99.90
12872;DHT22;6504;53.766;9.626;2023-07-30T11:49:31;21.50;99.90
12872;DHT22;6504;53.766;9.626;2023-07-30T11:52:06;21.60;99.90
12872;DHT22;6504;53.766;9.626;2023-07-30T11:54:36;21.80;99.90
12872;DHT22;6504;53.766;9.626;2023-07-30T11:57:04;21.90;99.90
12872;DHT22;6504;53.766;9.626;2023-07-30T11:59:34;22.00;99.90
12872;DHT22;6504;53.766;9.626;2023-07-30T12:02:03;22.10;99.90
12872;DHT22;6504;53.766;9.626;2023-07-30T12:04:43;22.20;99.90
12872;DHT22;6504;53.766;9.626;2023-07-30T12:07:22;22.30;99.90
12872;DHT22;6504;53.766;9.626;2023-07-30T12:09:50;22.30;99.90
12872;DHT22;6504;53.766;9.626;2023-07-30T12:12:18;22.30;99.90
12872;DHT22;6504;53.766;9.626;2023-07-30T12:14:54;22.30;99.90
12872;DHT22;6504;53.766;9.626;2023-07-30T12:17:22;22.30;99.90
12872;DHT22;6504;53.766;9.626;2023-07-30T12:19:50;22.30;99.90
12872;DHT22;6504;53.766;9.626;2023-07-30T12:22:18;22.30;99.90
12872;DHT22;6504;53.766;9.626;2023-07-30T12:24:46;22.30;99.90
12872;DHT22;6504;53.766;9.626;2023-07-30T12:27:14;22.30;99.90
12872;DHT22;6504;53.766;9.626;2023-07-30T12:29:42;22.20;99.90
12872;DHT22;6504;53.766;9.626;2023-07-30T12:32:12;22.20;99.90
12872;DHT22;6504;53.766;9.626;2023-07-30T12:34:40;22.10;99.90
12872;DHT22;6504;53.766;9.626;2023-07-30T12:37:08;22.00;99.90
12872;DHT22;6504;53.766;9.626;2023-07-30T12:39:36;21.80;99.90
12872;DHT22;6504;53.766;9.626;2023-07-30T12:42:04;21.60;99.90
12872;DHT22;6504;53.766;9.626;2023-07-30T12:44:33;21.40;99.90
12872;DHT22;6504;53.766;9.626;2023-07-30T12:47:01;21.30;99.90
12872;DHT22;6504;53.766;9.626;2023-07-30T12:49:30;21.10;99.90
12872;DHT22;6504;53.766;9.626;2023-07-30T12:51:58;20.80;99.90
12872;DHT22;6504;53.766;9.626;2023-07-30T12:54:26;20.50;99.90
12872;DHT22;6504;53.766;9.626;2023-07-30T12:56:54;20.30;99.90
12872;DHT22;6504;53.766;9.626;2023-07-30T12:59:22;20.00;99.90
12872;DHT22;6504;53.766;9.626;2023-07-30T13:01:51;19.70;99.90
12872;DHT22;6504;53.766;9.626;2023-07-30T13:04:20;19.40;99.90
12872;DHT22;6504;53.766;9.626;2023-07-30T13:06:50;19.20;99.90
12872;DHT22;6504;53.766;9.626;2023-07-30T13:09:18;18.90;99.90
12872;DHT22;6504;53.766;9.626;2023-07-30T13:11:46;18.70;99.90
12872;DHT22;6504;53.766;9.626;2023-07-30T13:14:14;18.60;99.90
12872;DHT22;6504;53.766;9.626;2023-07-30T13:16:42;18.50;99.90
12872;DHT22;6504;53.766;9.626;2023-07-30T13:19:10;18.40;99.90
12872;DHT22;6504;53.766;9.626;2023-07-30T13:21:38;18.30;99.90
12872;DHT22;6504;53.766;9.626;2023-07-30T13:24:08;18.30;99.90
12872;DHT22;6504;53.766;9.626;2023-07-30T13:26:36;18.30;99.90
12872;DHT22;6504;53.766;9.626;2023-07-30T13:29:05;18.20;99.90
12872;DHT22;6504;53.766;9.626;2023-07-30T13:31:33;18.20;99.90
12872;DHT22;6504;53.766;9.626;2023-07-30T13:34:01;18.20;99.90
12872;DHT22;6504;53.766;9.626;2023-07-30T13:36:29;18.20;99.90
12872;DHT22;6504;53.766;9.626;2023-07-30T13:38:57;18.20;99.90
12872;DHT22;6504;53.766;9.626;2023-07-30T13:41:27;18.30;99.90
12872;DHT22;6504;53.766;9.626;2023-07-30T13:43:55;18.30;99.90
12872;DHT22;6504;53.766;9.626;2023-07-30T13:46:23;18.30;99.90
12872;DHT22;6504;53.766;9.626;2023-07-30T13:48:51;18.20;99.90
12872;DHT22;6504;53.766;9.626;2023-07-30T13:51:19;18.10;99.90
12872;DHT22;6504;53.766;9.626;2023-07-30T13:53:47;18.00;99.90
12872;DHT22;6504;53.766;9.626;2023-07-30T13:56:15;18.00;99.90
12872;DHT22;6504;53.766;9.626;2023-07-30T13:58:45;18.00;99.90
12872;DHT22;6504;53.766;9.626;2023-07-30T14:01:13;18.10;99.90
12872;DHT22;6504;53.766;9.626;2023-07-30T14:03:43;18.10;99.90
12872;DHT22;6504;53.766;9.626;2023-07-30T14:06:11;18.10;99.90
12872;DHT22;6504;53.766;9.626;2023-07-30T14:08:40;18.20;99.90
12872;DHT22;6504;53.766;9.626;2023-07-30T14:11:08;18.30;99.90
12872;DHT22;6504;53.766;9.626;2023-07-30T14:13:36;18.40;99.90
12872;DHT22;6504;53.766;9.626;2023-07-30T14:16:05;18.50;99.90
12872;DHT22;6504;53.766;9.626;2023-07-30T14:18:34;18.60;99.90
12872;DHT22;6504;53.766;9.626;2023-07-30T14:21:02;18.70;99.90
12872;DHT22;6504;53.766;9.626;2023-07-30T14:23:30;18.70;99.90
12872;DHT22;6504;53.766;9.626;2023-07-30T14:25:58;18.90;99.90
12872;DHT22;6504;53.766;9.626;2023-07-30T14:28:26;18.90;99.90
12872;DHT22;6504;53.766;9.626;2023-07-30T14:30:54;19.00;99.90
12872;DHT22;6504;53.766;9.626;2023-07-30T14:33:24;19.20;99.90
12872;DHT22;6504;53.766;9.626;2023-07-30T14:35:53;19.40;99.90
12872;DHT22;6504;53.766;9.626;2023-07-30T14:38:21;19.50;99.90
12872;DHT22;6504;53.766;9.626;2023-07-30T14:40:49;19.60;99.90
12872;DHT22;6504;53.766;9.626;2023-07-30T14:43:17;19.70;99.90
12872;DHT22;6504;53.766;9.626;2023-07-30T14:45:45;19.80;99.90
12872;DHT22;6504;53.766;9.626;2023-07-30T14:48:13;19.90;99.90
12872;DHT22;6504;53.766;9.626;2023-07-30T14:50:43;20.00;99.90
12872;DHT22;6504;53.766;9.626;2023-07-30T14:53:11;20.00;99.90
12872;DHT22;6504;53.766;9.626;2023-07-30T14:55:39;20.10;99.90
12872;DHT22;6504;53.766;9.626;2023-07-30T14:58:07;20.10;99.90
12872;DHT22;6504;53.766;9.626;2023-07-30T15:00:36;20.10;99.90
12872;DHT22;6504;53.766;9.626;2023-07-30T15:03:04;20.10;99.90
12872;DHT22;6504;53.766;9.626;2023-07-30T15:05:32;20.10;99.90
12872;DHT22;6504;53.766;9.626;2023-07-30T15:08:03;20.10;99.90
12872;DHT22;6504;53.766;9.626;2023-07-30T15:10:31;20.10;99.90
12872;DHT22;6504;53.766;9.626;2023-07-30T15:12:59;20.10;99.90
12872;DHT22;6504;53.766;9.626;2023-07-30T15:15:27;20.00;99.90
12872;DHT22;6504;53.766;9.626;2023-07-30T15:17:55;20.10;99.90
12872;DHT22;6504;53.766;9.626;2023-07-30T15:20:23;20.10;99.90
12872;DHT22;6504;53.766;9.626;2023-07-30T15:22:51;20.10;99.90
12872;DHT22;6504;53.766;9.626;2023-07-30T15:25:21;20.10;99.90
12872;DHT22;6504;53.766;9.626;2023-07-30T15:27:49;20.10;99.90
12872;DHT22;6504;53.766;9.626;2023-07-30T15:30:17;20.10;99.90
12872;DHT22;6504;53.766;9.626;2023-07-30T15:32:46;20.10;99.90
12872;DHT22;6504;53.766;9.626;2023-07-30T15:35:14;20.10;99.90
12872;DHT22;6504;53.766;9.626;2023-07-30T15:37:42;20.10;99.90
12872;DHT22;6504;53.766;9.626;2023-07-30T15:40:12;20.10;99.90
12872;DHT22;6504;53.766;9.626;2023-07-30T15:42:42;20.10;99.90
12872;DHT22;6504;53.766;9.626;2023-07-30T15:45:10;20.10;99.90
12872;DHT22;6504;53.766;9.626;2023-07-30T15:47:38;20.10;99.90
12872;DHT22;6504;53.766;9.626;2023-07-30T15:50:08;20.00;99.90
12872;DHT22;6504;53.766;9.626;2023-07-30T15:52:36;19.90;99.90
12872;DHT22;6504;53.766;9.626;2023-07-30T15:55:05;19.90;99.90